Meteo Giornale » Osservazioni meteo Italia » Monte Terminillo

ore: 00:55 - Osservazioni Meteo Monte Terminillo
Lat. 42° 28' N Lon. 12° 59' E Alt. 1874 metri s.l.m.

sereno Europe/Rome

1 °C

Sereno

Temp. 24 Ore

1 °C

8 °C

Nord-Ovest

16.7 Km/h

Dew point -5 °C

Umidità 64 %

Visibilità  0 Km

Il sole sorge alle ore 06:52

Il sole tramonta alle ore 17:50

Data e Ora Cielo e Fenomeni T °C DP °C Um. % Pres. hPa Vis. km Vento km/h
Oggi h: 00:55 sereno Sereno 1 -5 64 1025 0 NO 16.7
Ieri h: 23:55 sereno Sereno 1 -5 64 1025 0 N/NO 13
Ieri h: 22:55 sereno Sereno 1 -5 64 1026 0 N/NO 9.3
Ieri h: 21:55 sereno Sereno 2 -4 64 1026 0 N/NO 9.3
Ieri h: 20:55 sereno Sereno 2 -4 64 1026 0 N 5.5
Ieri h: 19:55 sereno Sereno 2 -4 64 1026 0 E/SE 9.3
Ieri h: 18:55 sereno Sereno 2 -5 59 1026 0 N 1.8
Ieri h: 17:55 sereno Sereno 3 -2 69 1026 0 E 7.4
Ieri h: 16:55 sereno Sereno 3 -3 64 1026 0 NO 11.1
Ieri h: 15:55 sereno Sereno 4 -3 60 1026 0 O/NO 9.3
Ieri h: 14:55 sereno Sereno 5 -2 60 1026 0 O/NO 7.4
Ieri h: 12:55 sereno Sereno 7 -6 38 1026 0 SE 7.4
Ieri h: 10:55 sereno Sereno 7 -14 20 1026 0 N 5.5
Ieri h: 09:55 sereno Sereno 8 -19 12 1026 0 N 1.8
Ieri h: 08:55 sereno Sereno 7 -19 13 1026 0 N 3.7
Ieri h: 07:55 sereno Sereno 1 -17 24 1025 0 N 3.7
Ieri h: 06:55 sereno Sereno 1 -17 24 1024 0 N/NO 14.8
Ieri h: 05:55 sereno Sereno 1 -19 20 1024 0 N 5.5
Ieri h: 04:55 sereno Sereno 1 -18 22 1024 0 N 3.7
Ieri h: 03:55 sereno Sereno 1 -17 24 1024 0 N 3.7
Ieri h: 02:55 sereno Sereno 1 -19 20 1024 0 N 11.1
Ieri h: 01:55 sereno Sereno 2 -20 17 1024 0 N/NO 11.1
Ieri h: 00:55 sereno Sereno 2 -13 31 1024 0 NO 9.3